Time;durP1;ratioP1;P1;durP2;ratioP2;P2;SDS_P1;SDS_P2;PMS_P1;PMS_P2;Temp;Humidity;BMP_temperature;BMP_pressure;BME280_temperature;BME280_humidity;BME280_pressure;Samples;Min_cycle;Max_cycle;Signal;HPM_P1;HPM_P2
2021/06/21 00:01:02;;;;;;;12.50;6.75;;;;;;;21.30;100.00;99787.25;5239143;28;20385;-79
2021/06/21 00:03:33;;;;;;;12.50;6.85;;;;;;;21.42;100.00;99789.63;5235744;28;20383;-79
2021/06/21 00:06:03;;;;;;;13.47;6.97;;;;;;;21.33;100.00;99793.13;5249000;28;20024;-79
2021/06/21 00:08:34;;;;;;;9.38;7.32;;;;;;;21.17;100.00;99795.53;5256340;28;20349;-79
2021/06/21 00:11:04;;;;;;;10.98;7.55;;;;;;;21.34;100.00;99793.97;5256439;28;20085;-76
2021/06/21 00:13:35;;;;;;;11.20;7.65;;;;;;;21.58;100.00;99783.72;5260708;28;20562;-76
2021/06/21 00:16:05;;;;;;;18.10;8.48;;;;;;;21.30;100.00;99760.66;5260570;28;20050;-79
2021/06/21 00:18:35;;;;;;;15.88;8.70;;;;;;;21.11;100.00;99734.97;5248883;28;20016;-79
2021/06/21 00:21:06;;;;;;;14.75;8.73;;;;;;;21.11;100.00;99718.16;5256289;28;20027;-79
2021/06/21 00:23:36;;;;;;;14.77;9.50;;;;;;;21.04;100.00;99709.09;5259359;28;20730;-79
2021/06/21 00:26:07;;;;;;;15.82;10.30;;;;;;;21.08;100.00;99716.63;5255753;28;20024;-77
2021/06/21 00:28:37;;;;;;;13.98;9.57;;;;;;;21.21;100.00;99711.03;5255524;28;20024;-78
2021/06/21 00:31:08;;;;;;;12.48;9.85;;;;;;;21.14;100.00;99713.41;5253186;28;20028;-78
2021/06/21 00:33:38;;;;;;;16.50;10.35;;;;;;;20.93;100.00;99726.00;5257153;28;20104;-77
2021/06/21 00:36:08;;;;;;;14.18;10.38;;;;;;;20.66;100.00;99742.75;5260901;28;20394;-78
2021/06/21 00:38:39;;;;;;;19.80;11.38;;;;;;;20.50;100.00;99755.72;5259259;28;20031;-77
2021/06/21 00:41:09;;;;;;;15.40;11.10;;;;;;;20.57;100.00;99755.03;5261398;28;20024;-77
2021/06/21 00:43:39;;;;;;;15.00;10.45;;;;;;;20.76;100.00;99765.66;5260194;28;20107;-78
2021/06/21 00:46:10;;;;;;;15.30;10.90;;;;;;;20.82;100.00;99765.97;5258882;28;20016;-78
2021/06/21 00:48:41;;;;;;;14.67;11.23;;;;;;;20.81;100.00;99779.38;5258572;28;20039;-79
2021/06/21 00:51:15;;;;;;;17.67;11.85;;;;;;;20.63;100.00;99773.06;5255138;28;20350;-76
2021/06/21 00:53:46;;;;;;;22.17;11.73;;;;;;;20.73;100.00;99760.63;5258132;28;20058;-79
2021/06/21 00:56:16;;;;;;;15.90;10.88;;;;;;;21.06;100.00;99769.06;5265903;28;20104;-77
2021/06/21 00:58:46;;;;;;;13.52;11.57;;;;;;;20.65;100.00;99802.13;5260585;28;20444;-78
2021/06/21 01:01:17;;;;;;;17.65;11.52;;;;;;;20.67;100.00;99813.47;5260067;28;20035;-78
2021/06/21 01:03:47;;;;;;;17.75;11.98;;;;;;;20.58;100.00;99830.19;5258030;28;20025;-78
2021/06/21 01:06:17;;;;;;;21.73;11.80;;;;;;;20.20;100.00;99857.47;5257039;28;20043;-78
2021/06/21 01:08:48;;;;;;;17.02;11.38;;;;;;;20.18;100.00;99855.91;5259741;28;20270;-78
2021/06/21 01:11:19;;;;;;;15.55;11.00;;;;;;;20.24;100.00;99834.13;5259854;28;20028;-77
2021/06/21 01:14:15;;;;;;;18.85;11.70;;;;;;;20.06;100.00;99844.53;5261336;28;20048;-77
2021/06/21 01:17:22;;;;;;;14.98;12.70;;;;;;;20.00;100.00;99807.03;5254607;28;20032;-78
2021/06/21 01:20:34;;;;;;;16.33;11.27;;;;;;;20.35;100.00;99778.31;5260519;28;20112;-76
2021/06/21 01:23:36;;;;;;;14.75;10.88;;;;;;;20.53;100.00;99748.31;5253692;28;20029;-77
2021/06/21 01:26:17;;;;;;;17.95;10.82;;;;;;;20.59;100.00;99717.69;5248333;28;20024;-76
2021/06/21 01:29:03;;;;;;;14.90;11.43;;;;;;;20.53;100.00;99715.59;5256640;28;20032;-77
2021/06/21 01:31:49;;;;;;;17.70;12.88;;;;;;;20.43;100.00;99699.66;5254649;28;20531;-78
2021/06/21 01:34:23;;;;;;;14.98;10.95;;;;;;;20.40;100.00;99710.56;5262591;28;20044;-78
2021/06/21 01:36:56;;;;;;;15.48;11.20;;;;;;;20.28;100.00;99716.13;5268171;28;20035;-77
2021/06/21 01:39:30;;;;;;;19.05;12.05;;;;;;;20.07;100.00;99748.03;5263716;28;20031;-78
2021/06/21 01:42:08;;;;;;;18.60;12.18;;;;;;;19.93;100.00;99784.69;5257286;28;20023;-78
2021/06/21 01:44:41;;;;;;;20.83;12.18;;;;;;;19.87;100.00;99801.94;5267183;28;20036;-78
2021/06/21 01:47:15;;;;;;;18.55;11.55;;;;;;;19.78;100.00;99797.41;5266011;28;20024;-78
2021/06/21 01:49:48;;;;;;;16.17;11.18;;;;;;;19.52;100.00;99742.28;5265588;28;20035;-75
2021/06/21 01:52:20;;;;;;;14.80;11.80;;;;;;;19.46;100.00;99701.22;5264091;28;20028;-78
2021/06/21 01:54:54;;;;;;;16.35;12.23;;;;;;;19.42;100.00;99694.53;5262991;28;20021;-77
2021/06/21 01:57:32;;;;;;;16.95;13.10;;;;;;;19.24;100.00;99695.28;5255845;28;20039;-78
2021/06/21 02:00:08;;;;;;;17.02;12.48;;;;;;;19.22;100.00;99655.63;5254853;28;20024;-77
2021/06/21 02:02:40;;;;;;;18.83;13.32;;;;;;;19.14;100.00;99660.69;5246159;28;20027;-76
2021/06/21 02:05:14;;;;;;;16.10;12.90;;;;;;;19.06;100.00;99639.34;5262181;28;20032;-78
2021/06/21 02:07:48;;;;;;;17.70;13.52;;;;;;;19.17;100.00;99609.31;5264353;28;20039;-78
2021/06/21 02:10:20;;;;;;;23.35;13.10;;;;;;;19.22;100.00;99580.59;5266679;28;20029;-78
2021/06/21 02:12:51;;;;;;;22.05;14.32;;;;;;;19.14;100.00;99577.75;5264826;28;20028;-78
2021/06/21 02:15:22;;;;;;;21.02;16.02;;;;;;;19.02;100.00;99578.81;5269468;28;20031;-78
2021/06/21 02:17:52;;;;;;;21.70;16.15;;;;;;;19.12;100.00;99575.22;5269875;28;20140;-78
2021/06/21 02:20:24;;;;;;;23.80;16.15;;;;;;;19.13;100.00;99582.19;5263305;28;20207;-78
2021/06/21 02:22:54;;;;;;;18.02;14.82;;;;;;;19.37;100.00;99580.13;5255383;28;20032;-78
2021/06/21 02:25:24;;;;;;;20.90;15.90;;;;;;;19.20;100.00;99612.53;5252032;28;20029;-77
2021/06/21 02:27:57;;;;;;;17.70;14.77;;;;;;;19.33;100.00;99642.31;5255063;28;20020;-77
2021/06/21 02:30:28;;;;;;;24.00;14.90;;;;;;;19.42;100.00;99646.00;5259066;28;20032;-78
2021/06/21 02:32:58;;;;;;;17.70;15.15;;;;;;;19.51;100.00;99640.72;5263063;28;20655;-77
2021/06/21 02:35:28;;;;;;;19.75;15.23;;;;;;;19.45;100.00;99646.53;5254328;28;20081;-76
2021/06/21 02:37:59;;;;;;;18.85;14.77;;;;;;;19.42;100.00;99652.13;5264519;28;20020;-77
2021/06/21 02:40:29;;;;;;;20.17;15.48;;;;;;;19.38;100.00;99656.00;5257770;28;20028;-77
2021/06/21 02:43:00;;;;;;;18.63;14.38;;;;;;;19.50;100.00;99654.09;5263509;28;20057;-78
2021/06/21 02:45:31;;;;;;;17.20;15.02;;;;;;;19.53;100.00;99651.19;5257235;28;20142;-78
2021/06/21 02:48:04;;;;;;;18.42;14.43;;;;;;;19.67;100.00;99645.53;5261127;28;20027;-78
2021/06/21 02:50:36;;;;;;;18.98;14.35;;;;;;;19.74;100.00;99642.22;5259003;28;20643;-77
2021/06/21 02:53:12;;;;;;;15.75;13.18;;;;;;;19.80;100.00;99636.34;5259724;28;20027;-77
2021/06/21 02:56:12;;;;;;;15.95;13.75;;;;;;;19.81;100.00;99643.34;5253282;28;20026;-78
2021/06/21 02:58:45;;;;;;;17.83;13.45;;;;;;;19.91;100.00;99646.88;5259930;28;20035;-78
2021/06/21 03:01:18;;;;;;;16.65;14.50;;;;;;;19.85;100.00;99652.72;5261850;28;20025;-79
2021/06/21 03:03:51;;;;;;;17.42;13.88;;;;;;;19.86;100.00;99651.75;5260510;28;21137;-78
2021/06/21 03:06:24;;;;;;;18.85;15.27;;;;;;;19.68;100.00;99653.34;5262542;28;20016;-78
2021/06/21 03:08:55;;;;;;;19.58;14.57;;;;;;;19.74;100.00;99662.56;5258292;28;20020;-78
2021/06/21 03:11:27;;;;;;;15.07;13.35;;;;;;;19.92;100.00;99650.38;5262119;28;20047;-77
2021/06/21 03:13:58;;;;;;;16.35;13.38;;;;;;;19.78;100.00;99633.00;5260791;28;20032;-78
2021/06/21 03:16:30;;;;;;;15.90;13.15;;;;;;;20.13;100.00;99617.47;5262721;28;20119;-78
2021/06/21 03:19:01;;;;;;;15.55;12.50;;;;;;;20.02;100.00;99633.53;5253603;28;20433;-77
2021/06/21 03:21:32;;;;;;;18.10;13.23;;;;;;;20.09;100.00;99632.00;5260412;28;20111;-78
2021/06/21 03:24:02;;;;;;;13.70;11.85;;;;;;;20.19;100.00;99626.69;5259930;28;20074;-78
2021/06/21 03:26:32;;;;;;;15.02;13.35;;;;;;;20.22;100.00;99632.59;5249389;28;20027;-77
2021/06/21 03:29:12;;;;;;;17.23;13.70;;;;;;;20.00;100.00;99638.09;5259812;28;20061;-79
2021/06/21 03:31:45;;;;;;;17.55;12.75;;;;;;;19.98;100.00;99640.03;5261856;28;20473;-77
2021/06/21 03:34:17;;;;;;;16.33;12.50;;;;;;;20.15;100.00;99635.91;5260465;28;20023;-78
2021/06/21 03:36:48;;;;;;;16.42;11.82;;;;;;;20.13;100.00;99641.34;5261304;28;20024;-78
2021/06/21 03:39:18;;;;;;;16.98;12.30;;;;;;;19.91;100.00;99646.88;5258493;28;20021;-78
2021/06/21 03:41:48;;;;;;;15.25;11.98;;;;;;;19.96;100.00;99641.97;5260140;28;20482;-77
2021/06/21 03:44:18;;;;;;;15.47;9.90;;;;;;;19.90;100.00;99642.53;5258461;28;20024;-78
2021/06/21 03:46:49;;;;;;;12.67;9.43;;;;;;;19.67;100.00;99643.72;5259710;28;20294;-78
2021/06/21 03:49:19;;;;;;;15.38;9.85;;;;;;;19.80;100.00;99652.25;5258691;28;20282;-79
2021/06/21 03:51:49;;;;;;;14.63;8.53;;;;;;;19.78;100.00;99643.59;5260353;28;20019;-77
2021/06/21 03:54:19;;;;;;;14.27;8.47;;;;;;;19.89;100.00;99643.50;5257557;28;20366;-78
2021/06/21 03:56:50;;;;;;;13.07;8.00;;;;;;;19.87;100.00;99636.66;5249245;28;20768;-77
2021/06/21 03:59:20;;;;;;;6.65;5.72;;;;;;;19.95;100.00;99629.69;5257505;28;20301;-78
2021/06/21 04:01:51;;;;;;;11.82;6.03;;;;;;;19.91;100.00;99635.41;5256177;28;20477;-77
2021/06/21 04:04:22;;;;;;;12.90;5.00;;;;;;;19.79;100.00;99639.16;5256314;28;20020;-79
2021/06/21 04:06:52;;;;;;;7.22;4.50;;;;;;;20.02;100.00;99608.81;5260298;28;20091;-78
2021/06/21 04:09:22;;;;;;;5.30;3.58;;;;;;;19.77;100.00;99618.06;5258831;28;20103;-78
2021/06/21 04:11:53;;;;;;;8.27;4.07;;;;;;;19.84;100.00;99621.00;5260520;28;20055;-78
2021/06/21 04:14:23;;;;;;;7.78;4.28;;;;;;;19.93;100.00;99610.44;5256626;28;20754;-78
2021/06/21 04:16:54;;;;;;;7.15;4.20;;;;;;;19.82;100.00;99604.41;5257980;28;20111;-78
2021/06/21 04:19:24;;;;;;;5.97;4.40;;;;;;;19.96;100.00;99594.22;5255359;28;20115;-77
2021/06/21 04:21:55;;;;;;;8.95;4.90;;;;;;;19.95;100.00;99589.91;5258918;28;20042;-78
2021/06/21 04:24:25;;;;;;;6.15;4.72;;;;;;;20.03;100.00;99594.56;5255554;28;20482;-78
2021/06/21 04:26:55;;;;;;;7.95;4.78;;;;;;;20.05;100.00;99604.06;5253885;28;20020;-78
2021/06/21 04:29:26;;;;;;;7.80;5.28;;;;;;;20.19;100.00;99593.06;5251609;28;20039;-78
2021/06/21 04:31:56;;;;;;;6.65;4.80;;;;;;;20.41;100.00;99602.53;5258713;28;20401;-78
2021/06/21 04:34:26;;;;;;;6.80;5.07;;;;;;;20.50;100.00;99599.88;5254934;28;20034;-78
2021/06/21 04:36:57;;;;;;;8.93;5.35;;;;;;;20.87;100.00;99590.25;5251121;28;20282;-78
2021/06/21 04:39:27;;;;;;;6.97;5.18;;;;;;;21.04;100.00;99576.22;5250633;28;20517;-76
2021/06/21 04:41:57;;;;;;;8.23;5.30;;;;;;;21.03;100.00;99572.72;5259009;28;20416;-78
2021/06/21 04:44:28;;;;;;;8.93;5.53;;;;;;;20.89;100.00;99559.06;5258999;28;20024;-78
2021/06/21 04:46:58;;;;;;;9.68;6.13;;;;;;;21.34;100.00;99554.69;5251970;28;20346;-79
2021/06/21 04:49:28;;;;;;;10.65;5.65;;;;;;;21.19;100.00;99556.16;5255505;28;20043;-77
2021/06/21 04:51:59;;;;;;;8.73;4.90;;;;;;;21.18;100.00;99559.78;5261164;28;20031;-76
2021/06/21 04:54:29;;;;;;;10.18;6.15;;;;;;;20.96;100.00;99562.81;5256494;28;20076;-78
2021/06/21 04:56:59;;;;;;;12.48;6.93;;;;;;;20.76;100.00;99553.19;5247700;28;20066;-78
2021/06/21 04:59:30;;;;;;;9.03;6.53;;;;;;;20.88;100.00;99557.38;5258223;28;20039;-77
2021/06/21 05:02:00;;;;;;;16.13;6.87;;;;;;;21.08;100.00;99561.66;5250188;28;20618;-76
2021/06/21 05:04:30;;;;;;;9.65;6.47;;;;;;;21.37;100.00;99565.88;5256694;28;20272;-77
2021/06/21 05:07:03;;;;;;;11.50;6.25;;;;;;;21.60;100.00;99561.00;5256432;28;20081;-77
2021/06/21 05:09:33;;;;;;;11.88;6.03;;;;;;;21.71;100.00;99560.84;5240329;28;90141;-79
2021/06/21 05:12:04;;;;;;;14.35;6.90;;;;;;;21.65;100.00;99570.25;5250983;28;20051;-78
2021/06/21 05:14:35;;;;;;;10.27;6.00;;;;;;;21.70;100.00;99569.78;5241292;28;20497;-79
2021/06/21 05:17:07;;;;;;;9.50;6.45;;;;;;;21.65;100.00;99575.56;5255168;28;20028;-80
2021/06/21 05:19:38;;;;;;;10.52;7.00;;;;;;;22.03;100.00;99579.81;5256380;28;20070;-79
2021/06/21 05:22:08;;;;;;;10.02;6.72;;;;;;;22.46;100.00;99585.25;5255558;28;20028;-79
2021/06/21 05:24:39;;;;;;;12.40;6.43;;;;;;;22.40;100.00;99584.03;5245540;28;20032;-79
2021/06/21 05:27:09;;;;;;;10.07;6.00;;;;;;;22.01;100.00;99590.63;5246613;28;20362;-79
2021/06/21 05:29:39;;;;;;;9.00;6.72;;;;;;;21.93;100.00;99593.19;5257563;28;20028;-79
2021/06/21 05:32:10;;;;;;;9.57;6.60;;;;;;;22.03;100.00;99596.63;5259153;28;20478;-79
2021/06/21 05:34:40;;;;;;;11.35;6.82;;;;;;;22.36;100.00;99598.63;5257286;28;20039;-79
2021/06/21 05:37:10;;;;;;;13.57;6.70;;;;;;;24.67;99.12;99581.13;5256410;28;20031;-79
2021/06/21 05:39:41;;;;;;;7.97;5.68;;;;;;;24.80;94.55;99591.34;5248150;28;20111;-79
2021/06/21 05:42:11;;;;;;;12.38;6.03;;;;;;;24.46;100.00;99597.81;5252085;28;20037;-80
2021/06/21 05:44:41;;;;;;;7.30;4.97;;;;;;;24.86;100.00;99604.03;5255599;28;20030;-80
2021/06/21 05:47:14;;;;;;;10.63;6.10;;;;;;;24.09;96.02;99600.94;5258521;28;20020;-79
2021/06/21 05:49:44;;;;;;;10.95;5.88;;;;;;;23.67;100.00;99604.59;5256658;28;20028;-79
2021/06/21 05:52:14;;;;;;;10.00;6.57;;;;;;;23.07;100.00;99606.41;5256190;28;20020;-79
2021/06/21 05:54:45;;;;;;;10.80;6.50;;;;;;;22.67;100.00;99591.94;5256853;28;20458;-79
2021/06/21 05:57:15;;;;;;;8.67;6.57;;;;;;;22.36;100.00;99589.78;5255709;28;20063;-79
2021/06/21 05:59:45;;;;;;;9.40;7.60;;;;;;;21.93;100.00;99584.38;5256436;28;20266;-79
2021/06/21 06:02:16;;;;;;;11.73;7.53;;;;;;;21.77;100.00;99589.50;5256709;28;20034;-79
2021/06/21 06:04:46;;;;;;;11.27;7.57;;;;;;;22.42;100.00;99592.72;5256425;28;20280;-79
2021/06/21 06:07:17;;;;;;;9.55;7.25;;;;;;;22.46;100.00;99594.06;5247182;28;20636;-79
2021/06/21 06:09:49;;;;;;;11.30;7.82;;;;;;;22.72;100.00;99589.66;5243388;28;20154;-79
2021/06/21 06:12:20;;;;;;;11.40;7.70;;;;;;;23.12;100.00;99585.47;5254978;28;20486;-79
2021/06/21 06:14:50;;;;;;;10.32;7.32;;;;;;;23.02;100.00;99587.34;5256531;28;20032;-79
2021/06/21 06:17:20;;;;;;;12.50;7.35;;;;;;;23.30;100.00;99593.38;5251923;28;20028;-79
2021/06/21 06:19:51;;;;;;;12.40;7.80;;;;;;;24.01;100.00;99582.22;5264470;28;20107;-79
2021/06/21 06:22:21;;;;;;;9.00;6.30;;;;;;;24.26;99.09;99580.41;5257368;28;20024;-79
2021/06/21 06:24:52;;;;;;;9.10;6.50;;;;;;;23.86;100.00;99588.34;5256858;28;20266;-79
2021/06/21 06:27:22;;;;;;;9.43;6.72;;;;;;;23.72;100.00;99581.75;5244185;28;20503;-79
2021/06/21 06:29:52;;;;;;;12.82;6.65;;;;;;;23.78;100.00;99581.13;5254429;28;20039;-79
2021/06/21 06:32:23;;;;;;;12.25;6.85;;;;;;;23.47;100.00;99592.47;5260050;28;20032;-80
2021/06/21 06:34:53;;;;;;;7.05;6.18;;;;;;;23.33;100.00;99590.44;5256455;28;20033;-79
2021/06/21 06:37:23;;;;;;;10.70;6.07;;;;;;;23.44;100.00;99593.66;5254404;28;20374;-79
2021/06/21 06:39:54;;;;;;;11.48;7.00;;;;;;;24.25;100.00;99594.78;5249588;28;20320;-79
2021/06/21 06:42:24;;;;;;;12.98;6.70;;;;;;;24.79;98.32;99587.81;5267168;28;20038;-80
2021/06/21 06:44:55;;;;;;;9.80;6.43;;;;;;;25.16;96.11;99592.63;5262490;28;20028;-80
2021/06/21 06:47:26;;;;;;;9.00;5.82;;;;;;;24.90;98.72;99592.84;5259858;28;20317;-80
2021/06/21 06:49:56;;;;;;;9.95;6.30;;;;;;;24.72;100.00;99577.97;5261702;28;20111;-79
2021/06/21 06:52:27;;;;;;;11.02;6.95;;;;;;;24.07;100.00;99592.22;5267774;28;20078;-79
2021/06/21 06:57:38;;;;;;;10.00;6.22;;;;;;;24.11;100.00;99588.25;5263547;28;20032;-77
2021/06/21 07:00:13;;;;;;;13.35;6.47;;;;;;;24.30;100.00;99593.28;5266835;28;20016;-79
2021/06/21 07:02:45;;;;;;;10.05;6.30;;;;;;;23.54;100.00;99589.00;5264331;28;20032;-79
2021/06/21 07:05:15;;;;;;;13.15;6.55;;;;;;;23.48;100.00;99589.66;5265343;28;20016;-79
2021/06/21 07:07:46;;;;;;;10.50;6.15;;;;;;;23.39;100.00;99585.25;5265925;28;20034;-79
2021/06/21 07:10:16;;;;;;;12.63;6.07;;;;;;;24.58;100.00;99577.81;5264701;28;20103;-78
2021/06/21 07:12:46;;;;;;;13.05;4.95;;;;;;;26.04;97.31;99578.94;5266948;28;20107;-78
2021/06/21 07:15:17;;;;;;;8.27;4.80;;;;;;;25.94;94.08;99579.16;5266429;28;20030;-78
2021/06/21 07:17:47;;;;;;;8.18;5.20;;;;;;;26.01;92.83;99576.63;5255151;28;20818;-80
2021/06/21 07:20:18;;;;;;;9.07;4.10;;;;;;;26.71;89.40;99570.13;5261056;28;20024;-79
2021/06/21 07:22:48;;;;;;;8.90;3.33;;;;;;;27.59;88.05;99570.88;5266878;28;20270;-78
2021/06/21 07:25:18;;;;;;;8.00;3.70;;;;;;;27.17;86.21;99575.22;5255771;28;21353;-80
2021/06/21 07:27:49;;;;;;;8.10;3.60;;;;;;;27.30;83.03;99580.78;5256907;28;20281;-78
2021/06/21 07:30:19;;;;;;;9.13;3.80;;;;;;;26.52;92.05;99571.44;5263635;28;20063;-79
2021/06/21 07:32:50;;;;;;;8.10;3.88;;;;;;;27.64;91.32;99573.00;5264924;28;20019;-80
2021/06/21 07:35:20;;;;;;;7.57;3.15;;;;;;;28.03;81.28;99579.72;5259415;28;20043;-79
2021/06/21 07:37:50;;;;;;;10.20;3.20;;;;;;;28.83;80.00;99578.47;5258050;28;20045;-80
2021/06/21 07:40:21;;;;;;;7.00;3.13;;;;;;;27.85;88.74;99591.91;5264035;28;20271;-80
2021/06/21 07:42:51;;;;;;;8.13;3.00;;;;;;;28.02;82.80;99587.97;5264023;28;20281;-80
2021/06/21 07:45:21;;;;;;;8.85;3.22;;;;;;;28.07;83.37;99591.75;5265395;28;20027;-77
2021/06/21 07:47:54;;;;;;;7.73;2.90;;;;;;;28.52;81.16;99580.72;5260364;28;20031;-77
2021/06/21 07:50:27;;;;;;;9.85;3.28;;;;;;;27.10;86.30;99598.44;5260112;28;20281;-77
2021/06/21 07:52:58;;;;;;;9.73;3.60;;;;;;;26.35;89.99;99593.16;5261730;28;20020;-77
2021/06/21 07:55:29;;;;;;;7.15;3.10;;;;;;;25.97;89.75;99586.84;5260504;28;20036;-78
2021/06/21 07:58:01;;;;;;;9.27;3.25;;;;;;;25.15;96.45;99598.97;5253159;28;20397;-76
2021/06/21 08:00:33;;;;;;;8.43;3.00;;;;;;;25.64;94.88;99593.34;5263306;28;20045;-78
2021/06/21 08:03:05;;;;;;;7.15;3.17;;;;;;;26.02;95.21;99592.50;5262582;28;20024;-76
2021/06/21 08:05:39;;;;;;;8.60;3.28;;;;;;;26.93;92.51;99591.53;5253110;28;20017;-77
2021/06/21 08:08:09;;;;;;;8.38;3.17;;;;;;;27.43;83.97;99597.91;5252979;28;20024;-78
2021/06/21 08:10:39;;;;;;;10.20;3.05;;;;;;;26.85;88.99;99589.75;5261477;28;20031;-78
2021/06/21 08:13:10;;;;;;;10.03;2.80;;;;;;;27.49;84.52;99601.72;5261282;28;20520;-78
2021/06/21 08:15:41;;;;;;;10.93;2.50;;;;;;;28.35;82.26;99592.72;5261656;28;20672;-78
2021/06/21 08:18:11;;;;;;;10.13;2.33;;;;;;;29.80;75.05;99586.41;5261567;28;20106;-76
2021/06/21 08:20:44;;;;;;;13.02;2.47;;;;;;;29.96;72.00;99586.06;5266537;28;20353;-79
2021/06/21 08:23:16;;;;;;;9.90;2.33;;;;;;;30.54;72.35;99580.88;5263243;28;20035;-76
2021/06/21 08:25:47;;;;;;;10.60;2.75;;;;;;;30.80;70.10;99593.59;5259140;28;20506;-76
2021/06/21 08:28:18;;;;;;;12.23;2.35;;;;;;;30.69;72.82;99602.28;5264366;28;20020;-78
2021/06/21 08:30:48;;;;;;;9.18;2.28;;;;;;;31.01;70.72;99603.13;5263959;28;20091;-79
2021/06/21 08:33:19;;;;;;;9.52;2.45;;;;;;;30.99;71.22;99615.19;5262458;28;20039;-77
2021/06/21 08:35:50;;;;;;;8.88;2.22;;;;;;;31.26;69.92;99608.75;5261849;28;20034;-78
2021/06/21 08:38:20;;;;;;;11.70;2.55;;;;;;;31.04;68.60;99613.50;5263811;28;20035;-79
2021/06/21 08:40:51;;;;;;;11.95;1.95;;;;;;;31.67;70.79;99609.34;5265101;28;20450;-79
2021/06/21 08:43:21;;;;;;;10.97;2.03;;;;;;;32.07;64.68;99608.94;5262113;28;20031;-76
2021/06/21 08:45:51;;;;;;;7.40;2.08;;;;;;;31.89;63.39;99606.13;5262422;28;20277;-78
2021/06/21 08:48:22;;;;;;;8.43;1.90;;;;;;;31.16;63.96;99617.28;5253836;28;20027;-79
2021/06/21 08:50:53;;;;;;;11.52;2.45;;;;;;;30.95;65.74;99614.78;5253511;28;20282;-79
2021/06/21 08:53:23;;;;;;;10.18;2.08;;;;;;;31.51;64.26;99615.97;5263105;28;20092;-78
2021/06/21 08:55:53;;;;;;;9.85;2.13;;;;;;;30.82;67.41;99613.94;5257385;28;20028;-77
2021/06/21 08:58:24;;;;;;;9.45;1.95;;;;;;;31.51;66.40;99615.16;5263390;28;20168;-79
2021/06/21 09:00:54;;;;;;;10.15;1.70;;;;;;;32.01;65.62;99617.13;5259161;28;20093;-77
2021/06/21 09:03:25;;;;;;;8.87;1.90;;;;;;;32.35;65.94;99620.31;5263866;28;20570;-79
2021/06/21 09:05:55;;;;;;;10.10;1.75;;;;;;;33.64;62.83;99620.34;5260883;28;20058;-79
2021/06/21 09:08:26;;;;;;;8.63;2.13;;;;;;;31.90;63.75;99634.00;5259669;28;20020;-79
2021/06/21 09:10:56;;;;;;;11.10;1.98;;;;;;;32.64;60.54;99627.84;5260869;28;20285;-77
2021/06/21 09:13:31;;;;;;;9.38;2.00;;;;;;;32.82;62.29;99624.41;5262386;28;20027;-78
2021/06/21 09:16:02;;;;;;;6.70;2.05;;;;;;;33.50;59.93;99625.06;5255980;28;20031;-79
2021/06/21 09:18:34;;;;;;;8.23;1.87;;;;;;;33.15;60.33;99620.38;5260574;28;20037;-78
2021/06/21 09:21:24;;;;;;;8.35;1.67;;;;;;;33.39;60.84;99623.09;5263323;28;20277;-78
2021/06/21 09:23:59;;;;;;;7.07;1.80;;;;;;;32.19;61.81;99630.81;5263982;28;20406;-77
2021/06/21 09:26:31;;;;;;;6.32;1.70;;;;;;;32.41;59.99;99632.16;5260454;28;20048;-78
2021/06/21 09:29:02;;;;;;;8.02;2.13;;;;;;;32.28;62.58;99626.78;5262639;28;20036;-79
2021/06/21 09:31:56;;;;;;;8.43;1.63;;;;;;;33.29;60.78;99630.09;5258167;28;20028;-79
2021/06/21 09:34:27;;;;;;;6.97;1.77;;;;;;;32.64;60.13;99640.53;5255851;28;20036;-76
2021/06/21 09:37:12;;;;;;;7.97;1.95;;;;;;;30.32;66.04;99643.28;5260518;28;20012;-77
2021/06/21 09:39:45;;;;;;;10.30;1.95;;;;;;;30.24;66.26;99652.38;5260682;28;20024;-79
2021/06/21 09:42:24;;;;;;;5.20;1.58;;;;;;;30.16;63.27;99644.47;5258519;28;20145;-77
2021/06/21 09:45:00;;;;;;;7.32;1.60;;;;;;;31.13;64.56;99644.72;5263562;28;20035;-79
2021/06/21 09:47:31;;;;;;;8.95;1.90;;;;;;;30.78;65.33;99647.75;5254235;28;20167;-80
2021/06/21 09:50:12;;;;;;;8.05;1.73;;;;;;;31.49;63.20;99647.78;5260847;28;20027;-77
2021/06/21 09:52:50;;;;;;;6.93;1.50;;;;;;;31.42;65.02;99649.69;5261561;28;20513;-79
2021/06/21 09:55:31;;;;;;;5.90;1.70;;;;;;;29.23;66.58;99661.25;5262958;28;20032;-79
2021/06/21 09:58:16;;;;;;;8.05;1.85;;;;;;;27.56;67.91;99659.88;5254831;28;20027;-78
2021/06/21 10:01:09;;;;;;;12.80;1.90;;;;;;;28.05;70.73;99658.31;5263088;28;20113;-77
2021/06/21 10:03:41;;;;;;;8.07;1.77;;;;;;;28.67;68.24;99647.88;5260707;28;20024;-79
2021/06/21 10:06:13;;;;;;;6.78;1.58;;;;;;;28.57;68.30;99648.19;5261006;28;20025;-78
2021/06/21 10:08:52;;;;;;;7.43;1.80;;;;;;;28.05;68.91;99644.03;5253923;28;20620;-79
2021/06/21 10:11:36;;;;;;;9.77;1.63;;;;;;;27.99;69.65;99640.22;5263602;28;20027;-78
2021/06/21 10:14:12;;;;;;;10.38;2.05;;;;;;;28.01;70.12;99642.75;5261543;28;20028;-75
2021/06/21 10:16:44;;;;;;;7.20;1.60;;;;;;;27.74;70.84;99648.78;5264567;28;20137;-75
2021/06/21 10:19:16;;;;;;;6.57;1.42;;;;;;;27.69;71.28;99645.78;5265082;28;20040;-77
2021/06/21 10:21:55;;;;;;;7.22;1.50;;;;;;;28.14;70.11;99646.41;5267101;28;20554;-77
2021/06/21 10:24:31;;;;;;;12.38;1.80;;;;;;;27.99;70.12;99652.84;5266324;28;20020;-78
2021/06/21 10:27:05;;;;;;;;;;;;;;;28.20;68.55;99655.59;5256641;28;20024;-79
2021/06/21 10:29:36;;;;;;;7.68;1.60;;;;;;;28.68;69.82;99658.44;5259183;28;19938;-79
2021/06/21 10:32:07;;;;;;;12.68;2.17;;;;;;;28.60;70.27;99668.47;5261186;28;20062;-79
2021/06/21 10:34:39;;;;;;;9.57;1.60;;;;;;;27.83;69.32;99674.53;5259018;28;20093;-79
2021/06/21 10:37:18;;;;;;;6.45;1.60;;;;;;;28.14;70.25;99662.53;5258999;28;20051;-76
2021/06/21 10:39:51;;;;;;;8.50;1.60;;;;;;;28.28;72.46;99666.25;5258578;28;20381;-78
2021/06/21 10:42:24;;;;;;;6.28;1.60;;;;;;;27.89;72.87;99671.09;5259694;28;20056;-77
2021/06/21 10:44:58;;;;;;;6.50;1.38;;;;;;;27.49;71.27;99671.53;5261233;28;20052;-79
2021/06/21 10:47:30;;;;;;;8.40;1.63;;;;;;;27.62;71.49;99667.16;5262650;28;20024;-82
2021/06/21 10:50:11;;;;;;;6.78;1.45;;;;;;;27.98;72.89;99667.31;5253510;28;20024;-81
2021/06/21 10:52:43;;;;;;;5.25;1.40;;;;;;;27.77;68.66;99665.34;5261379;28;20039;-82
2021/06/21 10:55:26;;;;;;;6.05;1.30;;;;;;;27.23;73.67;99661.22;5261973;28;20166;-81
2021/06/21 10:58:01;;;;;;;8.13;1.45;;;;;;;27.04;73.41;99669.75;5262913;28;20024;-81
2021/06/21 11:00:32;;;;;;;10.82;2.22;;;;;;;26.76;71.49;99665.13;5256246;28;20025;-80
2021/06/21 11:03:26;;;;;;;10.23;1.50;;;;;;;26.59;73.41;99666.25;5264727;28;20039;-80
2021/06/21 11:05:59;;;;;;;9.05;1.75;;;;;;;26.20;74.13;99665.41;5262029;28;20028;-80
2021/06/21 11:08:39;;;;;;;8.13;1.75;;;;;;;26.14;74.94;99671.47;5254525;28;20025;-77
2021/06/21 11:11:35;;;;;;;6.95;1.65;;;;;;;26.46;75.67;99670.47;5264150;22;20710;-80
2021/06/21 11:14:09;;;;;;;10.35;1.55;;;;;;;26.29;77.54;99664.38;5227780;28;20120;-81
2021/06/21 11:16:42;;;;;;;6.40;1.70;;;;;;;26.53;75.50;99661.56;5235141;28;20089;-81
2021/06/21 11:19:20;;;;;;;9.23;1.75;;;;;;;26.28;76.74;99664.53;5235033;28;20025;-79
2021/06/21 11:22:02;;;;;;;3.92;1.20;;;;;;;26.16;76.20;99663.28;5213237;28;20021;-79
2021/06/21 11:24:35;;;;;;;9.57;1.70;;;;;;;25.99;77.68;99661.69;5207368;28;20490;-80
2021/06/21 11:27:10;;;;;;;6.93;1.50;;;;;;;26.53;77.27;99661.56;5210913;28;20079;-81
2021/06/21 11:29:49;;;;;;;6.57;1.50;;;;;;;26.71;77.17;99663.97;5213343;28;20040;-81
2021/06/21 11:32:20;;;;;;;4.53;1.30;;;;;;;26.42;76.58;99661.09;5213214;28;20061;-80
2021/06/21 11:35:01;;;;;;;6.97;1.55;;;;;;;26.59;76.47;99660.03;5214192;28;20025;-81
2021/06/21 11:37:42;;;;;;;5.45;1.50;;;;;;;26.62;77.34;99665.03;5208672;28;20491;-80
2021/06/21 11:40:18;;;;;;;4.75;1.50;;;;;;;26.87;75.30;99657.47;5213579;28;20122;-80
2021/06/21 11:42:57;;;;;;;4.72;1.33;;;;;;;26.87;75.89;99665.53;5214824;28;20546;-81
2021/06/21 11:45:52;;;;;;;4.63;1.38;;;;;;;27.14;76.21;99656.91;5206682;28;20360;-80
2021/06/21 11:48:33;;;;;;;3.03;1.20;;;;;;;27.39;74.28;99666.41;5213866;28;20517;-80
2021/06/21 11:51:16;;;;;;;7.47;1.50;;;;;;;26.99;73.84;99664.09;5209281;28;20040;-80